Time;durP1;ratioP1;P1;durP2;ratioP2;P2;SDS_P1;SDS_P2;PMS_P1;PMS_P2;Temp;Humidity;BMP_temperature;BMP_pressure;BME280_temperature;BME280_humidity;BME280_pressure;Samples;Min_cycle;Max_cycle;Signal;HPM_P1;HPM_P2
2023/09/14 00:01:46;;;;;;;0.85;0.10;;;;;;;20.46;100.00;100728.91;4991002;28;20062;-73
2023/09/14 00:04:11;;;;;;;0.30;0.10;;;;;;;20.43;100.00;100731.97;4992251;28;20121;-73
2023/09/14 00:06:37;;;;;;;0.68;0.15;;;;;;;20.40;100.00;100721.78;4991929;28;20136;-73
2023/09/14 00:09:03;;;;;;;0.50;0.10;;;;;;;20.35;100.00;100729.47;4993435;28;20061;-73
2023/09/14 00:11:28;;;;;;;0.63;0.17;;;;;;;20.31;100.00;100724.81;4990985;28;20383;-73
2023/09/14 00:13:54;;;;;;;0.22;0.10;;;;;;;20.37;100.00;100723.97;4992057;28;20423;-73
2023/09/14 00:16:19;;;;;;;0.15;0.10;;;;;;;20.46;100.00;100722.81;4990713;28;20069;-73
2023/09/14 00:18:44;;;;;;;0.20;0.10;;;;;;;20.48;100.00;100726.88;4990971;28;20030;-73
2023/09/14 00:21:10;;;;;;;0.70;0.10;;;;;;;20.45;100.00;100723.81;4992631;28;20112;-73
2023/09/14 00:23:35;;;;;;;0.60;0.20;;;;;;;20.37;100.00;100718.69;4992464;28;20122;-73
2023/09/14 00:26:01;;;;;;;0.38;0.20;;;;;;;20.31;100.00;100722.97;4991669;28;20460;-73
2023/09/14 00:28:26;;;;;;;0.32;0.10;;;;;;;20.39;100.00;100716.69;4991223;28;20030;-73
2023/09/14 00:30:55;;;;;;;0.60;0.20;;;;;;;20.42;100.00;100726.88;4989575;28;20045;-73
2023/09/14 00:33:22;;;;;;;0.88;0.25;;;;;;;20.43;100.00;100728.50;4990723;28;20058;-72
2023/09/14 00:35:48;;;;;;;1.65;0.40;;;;;;;20.46;100.00;100725.44;4991173;28;20037;-72
2023/09/14 00:38:14;;;;;;;0.57;0.20;;;;;;;20.49;100.00;100709.16;4992287;28;20034;-72
2023/09/14 00:40:39;;;;;;;0.47;0.20;;;;;;;20.49;100.00;100701.22;4991298;28;20033;-73
2023/09/14 00:43:04;;;;;;;0.40;0.20;;;;;;;20.49;100.00;100704.69;4992988;28;20066;-73
2023/09/14 00:45:32;;;;;;;0.85;0.15;;;;;;;20.47;100.00;100705.91;4991099;28;20109;-72
2023/09/14 00:47:58;;;;;;;1.63;0.20;;;;;;;20.41;100.00;100698.78;4990345;28;20555;-73
2023/09/14 00:50:25;;;;;;;0.28;0.08;;;;;;;20.40;100.00;100707.72;4991923;28;20392;-72
2023/09/14 00:53:02;;;;;;;0.47;0.22;;;;;;;20.45;100.00;100707.94;4991334;28;20085;-72
2023/09/14 00:55:28;;;;;;;0.50;0.20;;;;;;;20.47;100.00;100709.38;4990882;28;20105;-73
2023/09/14 00:57:55;;;;;;;0.43;0.20;;;;;;;20.46;100.00;100707.75;4990926;28;20200;-72
2023/09/14 01:00:21;;;;;;;0.45;0.17;;;;;;;20.45;100.00;100698.16;4990579;28;20028;-73
2023/09/14 01:02:50;;;;;;;1.13;0.20;;;;;;;20.49;100.00;100706.53;4989696;28;20038;-72
2023/09/14 01:05:16;;;;;;;0.20;0.00;;;;;;;20.50;100.00;100703.66;4991048;28;20040;-72
2023/09/14 01:07:41;;;;;;;0.57;0.20;;;;;;;20.44;100.00;100693.06;4986569;28;20030;-72
2023/09/14 01:10:12;;;;;;;0.50;0.10;;;;;;;20.38;100.00;100696.53;4992150;28;20468;-72
2023/09/14 01:12:39;;;;;;;0.90;0.20;;;;;;;20.33;100.00;100691.81;4987898;28;20507;-73
2023/09/14 01:15:36;;;;;;;0.45;0.10;;;;;;;20.32;100.00;100705.28;4991315;28;20400;-73
2023/09/14 01:18:27;;;;;;;0.80;0.17;;;;;;;20.32;100.00;100699.97;4988450;28;20396;-73
2023/09/14 01:21:05;;;;;;;0.32;0.10;;;;;;;20.34;100.00;100703.22;4988992;28;20070;-72
2023/09/14 01:23:42;;;;;;;0.50;0.10;;;;;;;20.36;100.00;100704.63;4987537;28;20068;-73
2023/09/14 01:26:09;;;;;;;1.45;0.20;;;;;;;20.41;100.00;100702.22;4989833;28;20030;-73
2023/09/14 01:28:35;;;;;;;0.60;0.30;;;;;;;20.45;100.00;100715.88;4988184;28;20039;-72
2023/09/14 01:31:00;;;;;;;0.20;0.10;;;;;;;20.47;100.00;100732.38;4990478;28;20365;-73
2023/09/14 01:33:29;;;;;;;0.22;0.05;;;;;;;20.45;100.00;100740.50;4989729;28;20030;-72
2023/09/14 01:36:41;;;;;;;0.15;0.03;;;;;;;20.25;100.00;100783.81;4991680;28;20504;-71
2023/09/14 01:39:07;;;;;;;0.10;0.00;;;;;;;18.76;100.00;100782.56;4997205;28;20053;-69
2023/09/14 01:41:34;;;;;;;0.00;0.00;;;;;;;17.81;100.00;100777.50;5006325;28;20530;-67
2023/09/14 01:44:00;;;;;;;0.00;0.00;;;;;;;17.43;100.00;100753.06;4999662;28;20061;-67
2023/09/14 01:46:27;;;;;;;0.00;0.00;;;;;;;17.38;100.00;100743.06;5004252;28;20124;-70
2023/09/14 01:48:52;;;;;;;0.10;0.10;;;;;;;17.25;100.00;100734.97;4998420;28;20049;-68
2023/09/14 01:51:17;;;;;;;0.00;0.00;;;;;;;17.19;100.00;100725.16;5008055;28;20037;-69
2023/09/14 01:53:43;;;;;;;0.10;0.00;;;;;;;17.28;100.00;100733.81;5004551;28;20045;-67
2023/09/14 01:56:08;;;;;;;0.00;0.00;;;;;;;17.35;100.00;100739.97;5004610;28;20042;-69
2023/09/14 01:58:34;;;;;;;0.00;0.00;;;;;;;17.49;100.00;100739.94;5003169;28;20113;-68
2023/09/14 02:00:59;;;;;;;0.00;0.00;;;;;;;17.53;100.00;100730.69;5004663;28;20061;-68
2023/09/14 02:03:26;;;;;;;0.22;0.00;;;;;;;17.49;100.00;100726.78;5005969;28;20548;-67
2023/09/14 02:05:58;;;;;;;0.10;0.00;;;;;;;17.55;100.00;100747.13;4999207;28;20034;-67
2023/09/14 02:08:25;;;;;;;0.00;0.00;;;;;;;17.64;100.00;100739.13;5003525;28;20429;-67
2023/09/14 02:10:51;;;;;;;0.25;0.00;;;;;;;17.59;100.00;100737.03;5004506;28;20045;-67
2023/09/14 02:13:16;;;;;;;0.13;0.00;;;;;;;17.50;100.00;100736.31;5003528;28;20439;-66
2023/09/14 02:15:42;;;;;;;0.30;0.30;;;;;;;17.53;100.00;100727.22;4990810;28;20081;-67
2023/09/14 02:18:07;;;;;;;0.03;0.00;;;;;;;17.52;100.00;100736.94;4984573;28;20030;-67
2023/09/14 02:20:35;;;;;;;0.00;0.00;;;;;;;17.47;100.00;100736.72;4989735;28;20484;-67
2023/09/14 02:23:01;;;;;;;0.00;0.00;;;;;;;17.30;100.00;100737.88;4990138;28;20050;-66
2023/09/14 02:25:26;;;;;;;0.10;0.00;;;;;;;17.25;100.00;100732.34;4989494;28;20400;-67
2023/09/14 02:27:52;;;;;;;0.00;0.00;;;;;;;17.22;100.00;100732.72;4987501;28;20097;-66
2023/09/14 02:30:18;;;;;;;0.00;0.00;;;;;;;17.33;100.00;100741.97;4990055;28;20562;-66
2023/09/14 02:32:43;;;;;;;0.00;0.00;;;;;;;17.42;100.00;100746.16;4989389;28;20042;-66
2023/09/14 02:35:09;;;;;;;0.10;0.00;;;;;;;17.46;100.00;100756.16;4984614;28;20053;-67
2023/09/14 02:37:34;;;;;;;0.00;0.00;;;;;;;17.44;100.00;100776.59;4989933;28;20061;-67
2023/09/14 02:40:00;;;;;;;0.05;0.00;;;;;;;17.43;100.00;100790.75;4987127;28;20113;-66
2023/09/14 02:42:25;;;;;;;0.00;0.00;;;;;;;17.46;100.00;100800.94;4989988;28;20030;-67
2023/09/14 02:44:51;;;;;;;0.00;0.00;;;;;;;17.44;100.00;100800.28;4987212;28;20100;-67
2023/09/14 02:47:16;;;;;;;0.00;0.00;;;;;;;17.39;100.00;100802.66;4988517;28;20045;-66
2023/09/14 02:49:41;;;;;;;0.10;0.00;;;;;;;17.32;100.00;100801.72;4988132;28;20049;-67
2023/09/14 02:52:07;;;;;;;0.00;0.00;;;;;;;17.39;100.00;100800.00;4989765;28;20543;-67
2023/09/14 02:54:32;;;;;;;0.43;0.00;;;;;;;17.46;100.00;100794.84;4989803;28;20101;-67
2023/09/14 02:56:58;;;;;;;0.00;0.00;;;;;;;17.47;100.00;100780.69;4991811;28;20045;-66
2023/09/14 02:59:23;;;;;;;0.20;0.00;;;;;;;17.29;100.00;100773.13;4991265;28;20030;-67
2023/09/14 03:01:49;;;;;;;0.20;0.00;;;;;;;17.23;100.00;100768.56;4991447;28;20129;-66
2023/09/14 03:04:15;;;;;;;0.10;0.00;;;;;;;17.35;100.00;100772.41;5007528;28;20440;-66
2023/09/14 03:06:40;;;;;;;0.00;0.00;;;;;;;17.39;100.00;100772.84;4991281;28;20121;-66
2023/09/14 03:09:06;;;;;;;0.00;0.00;;;;;;;17.33;100.00;100769.13;4994032;28;20031;-66
2023/09/14 03:11:31;;;;;;;0.00;0.00;;;;;;;17.21;100.00;100765.31;4992880;28;20054;-66
2023/09/14 03:13:57;;;;;;;0.00;0.00;;;;;;;17.18;100.00;100749.88;4991432;28;20126;-66
2023/09/14 03:16:22;;;;;;;0.00;0.00;;;;;;;17.16;100.00;100762.38;4993070;28;20031;-66
2023/09/14 03:18:48;;;;;;;0.35;0.00;;;;;;;17.03;100.00;100756.91;4992432;28;20057;-66
2023/09/14 03:21:25;;;;;;;0.00;0.00;;;;;;;17.06;100.00;100770.53;4992476;28;20047;-66
2023/09/14 03:23:51;;;;;;;0.03;0.00;;;;;;;17.05;100.00;100770.72;4989992;28;20034;-65
2023/09/14 03:26:17;;;;;;;0.00;0.00;;;;;;;17.18;100.00;100786.72;4990074;28;20045;-65
2023/09/14 03:28:43;;;;;;;0.00;0.00;;;;;;;17.28;100.00;100799.63;4992511;28;20077;-66
2023/09/14 03:31:09;;;;;;;0.00;0.00;;;;;;;17.31;100.00;100786.09;4993573;28;20474;-66
2023/09/14 03:33:34;;;;;;;0.00;0.00;;;;;;;17.17;100.00;100792.97;4987396;28;20121;-66
2023/09/14 03:36:01;;;;;;;0.08;0.00;;;;;;;16.96;100.00;100792.88;4991434;28;20039;-67
2023/09/14 03:38:28;;;;;;;0.00;0.00;;;;;;;16.94;100.00;100803.56;4992343;28;20034;-66
2023/09/14 03:40:54;;;;;;;0.00;0.00;;;;;;;17.11;100.00;100806.84;4989290;28;20047;-66
2023/09/14 03:43:20;;;;;;;0.00;0.00;;;;;;;17.21;100.00;100800.34;4986663;28;20046;-66
2023/09/14 03:45:45;;;;;;;0.00;0.00;;;;;;;17.12;100.00;100792.69;4993952;28;20475;-66
2023/09/14 03:48:11;;;;;;;0.00;0.00;;;;;;;16.98;100.00;100791.69;4991965;28;20034;-67
2023/09/14 03:50:36;;;;;;;0.10;0.00;;;;;;;16.90;100.00;100784.69;4991017;28;20218;-66
2023/09/14 03:53:02;;;;;;;0.00;0.00;;;;;;;16.92;100.00;100797.66;4991747;28;20038;-66
2023/09/14 03:55:29;;;;;;;0.00;0.00;;;;;;;17.06;100.00;100798.69;4993049;28;20033;-66
2023/09/14 03:57:54;;;;;;;0.00;0.00;;;;;;;17.11;100.00;100791.06;4994532;28;20046;-66
2023/09/14 04:00:20;;;;;;;0.17;0.00;;;;;;;17.04;100.00;100790.13;4986255;28;20030;-67
2023/09/14 04:02:45;;;;;;;0.00;0.00;;;;;;;17.06;100.00;100785.50;4989465;28;20054;-66
2023/09/14 04:05:12;;;;;;;0.20;0.10;;;;;;;17.08;100.00;100779.06;4990986;28;20045;-66
2023/09/14 04:07:37;;;;;;;0.45;0.00;;;;;;;17.11;100.00;100780.53;4987247;28;20085;-66
2023/09/14 04:10:06;;;;;;;0.00;0.00;;;;;;;17.03;100.00;100770.91;4990738;28;20104;-66
2023/09/14 04:12:31;;;;;;;0.00;0.00;;;;;;;17.03;100.00;100772.72;4991647;28;20463;-66
2023/09/14 04:14:57;;;;;;;0.00;0.00;;;;;;;17.07;100.00;100776.63;4992309;28;20031;-66
2023/09/14 04:17:22;;;;;;;0.00;0.00;;;;;;;17.11;100.00;100770.81;4989777;28;20035;-66
2023/09/14 04:19:47;;;;;;;0.00;0.00;;;;;;;17.14;100.00;100767.00;4990577;28;20045;-66
2023/09/14 04:22:13;;;;;;;0.10;0.00;;;;;;;17.13;100.00;100770.66;4988521;28;20053;-65
2023/09/14 04:24:38;;;;;;;0.20;0.00;;;;;;;17.21;100.00;100771.38;4991586;28;20022;-66
2023/09/14 04:27:04;;;;;;;0.03;0.00;;;;;;;17.30;100.00;100772.13;4989877;28;20046;-66
2023/09/14 04:29:32;;;;;;;1.02;0.00;;;;;;;17.37;100.00;100766.97;4986472;28;20035;-67
2023/09/14 04:31:58;;;;;;;0.08;0.00;;;;;;;17.38;100.00;100772.03;4990481;28;20065;-66
2023/09/14 04:34:23;;;;;;;0.10;0.00;;;;;;;17.35;100.00;100769.78;4991529;28;20073;-67
2023/09/14 04:36:48;;;;;;;0.10;0.00;;;;;;;17.38;100.00;100777.31;4984085;28;20539;-68
2023/09/14 04:39:14;;;;;;;0.10;0.00;;;;;;;17.35;100.00;100774.22;4989044;28;20941;-67
2023/09/14 04:41:40;;;;;;;0.00;0.00;;;;;;;17.38;100.00;100779.13;4990807;28;20049;-66
2023/09/14 04:44:05;;;;;;;0.00;0.00;;;;;;;17.40;100.00;100774.50;4991815;28;20030;-66
2023/09/14 04:46:31;;;;;;;0.00;0.00;;;;;;;17.40;100.00;100780.56;4990511;28;20030;-66
2023/09/14 04:48:56;;;;;;;0.20;0.00;;;;;;;17.36;100.00;100773.22;4988727;28;20030;-66
2023/09/14 04:51:23;;;;;;;0.00;0.00;;;;;;;17.33;100.00;100774.41;4990832;28;20109;-66
2023/09/14 04:53:48;;;;;;;0.10;0.00;;;;;;;17.28;100.00;100779.38;4990329;28;20041;-66
2023/09/14 04:56:14;;;;;;;0.10;0.00;;;;;;;17.26;100.00;100789.28;4992082;28;20034;-67
2023/09/14 04:58:39;;;;;;;0.50;0.00;;;;;;;17.27;100.00;100783.00;4988295;28;20097;-67
2023/09/14 05:01:05;;;;;;;0.00;0.00;;;;;;;17.30;100.00;100780.03;4989559;28;20097;-66
2023/09/14 05:03:31;;;;;;;0.10;0.00;;;;;;;17.27;100.00;100785.66;4986422;28;20113;-66
2023/09/14 05:05:56;;;;;;;0.43;0.00;;;;;;;17.19;100.00;100783.91;4996327;28;20073;-67
2023/09/14 05:08:22;;;;;;;0.15;0.00;;;;;;;17.15;100.00;100787.09;4990410;28;20027;-67
2023/09/14 05:10:49;;;;;;;0.08;0.00;;;;;;;17.15;100.00;100781.81;4988389;28;20038;-67
2023/09/14 05:13:15;;;;;;;0.20;0.00;;;;;;;17.13;100.00;100776.72;4990294;28;20038;-67
2023/09/14 05:15:41;;;;;;;0.00;0.00;;;;;;;17.16;100.00;100784.25;4990171;28;20062;-67
2023/09/14 05:18:06;;;;;;;0.10;0.10;;;;;;;17.27;100.00;100792.72;4989722;28;20066;-67
2023/09/14 05:20:32;;;;;;;0.20;0.00;;;;;;;17.29;100.00;100788.09;4989777;28;20038;-67
2023/09/14 05:22:57;;;;;;;1.05;0.00;;;;;;;17.32;100.00;100782.47;4989394;28;20058;-67
2023/09/14 05:25:25;;;;;;;0.00;0.00;;;;;;;17.40;100.00;100785.84;4990940;28;20479;-67
2023/09/14 05:27:51;;;;;;;0.10;0.00;;;;;;;17.49;100.00;100787.38;4989767;28;20036;-65
2023/09/14 05:30:21;;;;;;;0.43;0.00;;;;;;;17.49;100.00;100784.72;4986159;28;20038;-65
2023/09/14 05:32:47;;;;;;;0.10;0.03;;;;;;;17.43;100.00;100788.13;4988753;28;20060;-65
2023/09/14 05:35:13;;;;;;;1.38;0.00;;;;;;;17.37;100.00;100790.66;4989521;28;20129;-65
2023/09/14 05:37:38;;;;;;;0.20;0.00;;;;;;;17.34;100.00;100791.84;4989136;28;20026;-66
2023/09/14 05:40:11;;;;;;;0.22;0.03;;;;;;;17.39;100.00;100800.00;4990647;28;20121;-65
2023/09/14 05:42:37;;;;;;;0.00;0.00;;;;;;;17.38;100.00;100794.94;4986535;28;20411;-66
2023/09/14 05:45:07;;;;;;;0.10;0.00;;;;;;;17.39;100.00;100804.47;4989900;28;20034;-66
2023/09/14 05:47:32;;;;;;;0.00;0.00;;;;;;;17.46;100.00;100797.47;4988102;28;20027;-66
2023/09/14 05:49:58;;;;;;;0.00;0.00;;;;;;;17.45;100.00;100801.94;4990907;28;20029;-66
2023/09/14 05:52:23;;;;;;;0.05;0.00;;;;;;;17.51;100.00;100805.63;4988314;28;20062;-66
2023/09/14 05:54:49;;;;;;;0.20;0.10;;;;;;;17.51;100.00;100809.06;4989906;28;20117;-66
2023/09/14 05:57:14;;;;;;;0.00;0.00;;;;;;;17.53;100.00;100809.72;4990264;28;20052;-66
2023/09/14 05:59:40;;;;;;;0.00;0.00;;;;;;;17.54;100.00;100807.91;4989506;28;20440;-66
2023/09/14 06:02:06;;;;;;;0.20;0.00;;;;;;;17.65;100.00;100809.28;4986037;28;20049;-66
2023/09/14 06:04:32;;;;;;;0.15;0.00;;;;;;;17.84;100.00;100809.56;4980762;28;20113;-66
2023/09/14 06:06:58;;;;;;;0.00;0.00;;;;;;;17.96;100.00;100812.53;4986852;28;20510;-69
2023/09/14 06:09:25;;;;;;;0.40;0.00;;;;;;;18.05;100.00;100814.06;4988328;28;20371;-67
2023/09/14 06:11:50;;;;;;;0.00;0.00;;;;;;;18.14;100.00;100812.97;4986243;28;20041;-67
2023/09/14 06:14:16;;;;;;;0.10;0.00;;;;;;;18.19;100.00;100807.97;4988115;28;20046;-67
2023/09/14 06:16:41;;;;;;;0.00;0.00;;;;;;;18.16;100.00;100813.59;4983288;28;20030;-67
2023/09/14 06:19:07;;;;;;;0.10;0.10;;;;;;;18.17;100.00;100812.59;4985626;28;20655;-67
2023/09/14 06:21:33;;;;;;;0.10;0.00;;;;;;;18.23;100.00;100813.69;4981786;28;20042;-66
2023/09/14 06:23:59;;;;;;;0.10;0.00;;;;;;;18.26;100.00;100817.75;4982917;28;20098;-68
2023/09/14 06:26:27;;;;;;;0.00;0.00;;;;;;;18.31;100.00;100823.31;4987878;28;20034;-67
2023/09/14 06:28:53;;;;;;;0.15;0.00;;;;;;;18.33;100.00;100822.13;4989781;28;20038;-67
2023/09/14 06:31:18;;;;;;;0.00;0.00;;;;;;;18.38;100.00;100819.75;4988521;28;20471;-68
2023/09/14 06:33:44;;;;;;;0.38;0.05;;;;;;;18.43;100.00;100829.72;4989406;28;20031;-68
2023/09/14 06:36:09;;;;;;;0.00;0.00;;;;;;;18.40;100.00;100830.91;4981890;28;20153;-68
2023/09/14 06:38:35;;;;;;;0.17;0.00;;;;;;;18.44;100.00;100831.34;4987966;28;20069;-68
2023/09/14 06:41:00;;;;;;;0.03;0.00;;;;;;;18.48;100.00;100824.69;4988681;28;20038;-67
2023/09/14 06:43:26;;;;;;;0.15;0.00;;;;;;;18.47;100.00;100820.41;4984343;28;20038;-67
2023/09/14 06:45:51;;;;;;;0.00;0.00;;;;;;;18.53;100.00;100823.13;4987498;28;20038;-66
2023/09/14 06:48:17;;;;;;;0.35;0.10;;;;;;;18.52;100.00;100833.84;4985954;28;20096;-66
2023/09/14 06:50:43;;;;;;;2.05;0.10;;;;;;;18.55;100.00;100822.94;4988534;28;20034;-66
2023/09/14 06:53:09;;;;;;;0.47;0.15;;;;;;;18.50;100.00;100830.59;4986287;28;20112;-66
2023/09/14 06:55:38;;;;;;;0.20;0.10;;;;;;;18.42;100.00;100836.00;4981002;28;20101;-66
2023/09/14 06:58:04;;;;;;;0.10;0.00;;;;;;;18.50;100.00;100826.13;4986133;28;20030;-66
2023/09/14 07:00:30;;;;;;;0.10;0.00;;;;;;;18.66;100.00;100830.38;4987281;28;20042;-66
2023/09/14 07:02:56;;;;;;;0.08;0.00;;;;;;;18.75;100.00;100828.44;4990156;28;20570;-66
2023/09/14 07:05:21;;;;;;;0.28;0.00;;;;;;;18.68;100.00;100832.84;4989018;28;20145;-66
2023/09/14 07:07:47;;;;;;;0.10;0.00;;;;;;;18.73;100.00;100844.47;4988328;28;20042;-66
2023/09/14 07:10:12;;;;;;;0.52;0.00;;;;;;;18.74;100.00;100842.66;4987734;28;20034;-66
2023/09/14 07:12:37;;;;;;;0.65;0.00;;;;;;;18.68;100.00;100843.41;4986778;28;20476;-67
2023/09/14 07:15:03;;;;;;;0.00;0.00;;;;;;;18.63;100.00;100846.59;4987919;28;20053;-68
2023/09/14 07:17:29;;;;;;;0.15;0.00;;;;;;;18.72;100.00;100842.84;4981947;28;20034;-68
2023/09/14 07:19:54;;;;;;;0.00;0.00;;;;;;;18.72;100.00;100842.84;4980737;28;20030;-68
2023/09/14 07:22:20;;;;;;;0.05;0.00;;;;;;;18.76;100.00;100846.72;4981914;28;20092;-67
2023/09/14 07:24:46;;;;;;;0.00;0.00;;;;;;;18.82;100.00;100847.81;4985807;28;20031;-67
2023/09/14 07:27:12;;;;;;;0.00;0.00;;;;;;;18.87;100.00;100845.41;4988511;28;20104;-68
2023/09/14 07:29:38;;;;;;;0.00;0.00;;;;;;;19.03;100.00;100847.78;4987015;28;20388;-68
2023/09/14 07:32:04;;;;;;;0.00;0.00;;;;;;;19.19;100.00;100850.16;4990089;28;20098;-68
2023/09/14 07:34:29;;;;;;;0.00;0.00;;;;;;;19.22;100.00;100855.06;4987468;28;20479;-68
2023/09/14 07:36:55;;;;;;;0.20;0.08;;;;;;;19.16;100.00;100865.56;4988799;28;20545;-67
2023/09/14 07:39:20;;;;;;;0.57;0.10;;;;;;;19.15;100.00;100871.84;4986781;28;20027;-67
2023/09/14 07:41:46;;;;;;;0.25;0.00;;;;;;;19.17;100.00;100875.13;4985382;28;20031;-67
2023/09/14 07:44:12;;;;;;;0.20;0.10;;;;;;;19.13;100.00;100873.88;4990209;28;20037;-67
2023/09/14 07:46:39;;;;;;;0.08;0.00;;;;;;;19.16;100.00;100882.22;4995665;28;20038;-68
2023/09/14 07:49:08;;;;;;;0.10;0.00;;;;;;;19.28;100.00;100877.25;4987689;28;20514;-68
2023/09/14 07:51:33;;;;;;;0.15;0.00;;;;;;;19.34;100.00;100880.94;4989000;28;20041;-68
2023/09/14 07:53:59;;;;;;;0.43;0.00;;;;;;;19.28;100.00;100887.00;4993250;28;20030;-68
2023/09/14 07:56:25;;;;;;;0.43;0.10;;;;;;;19.27;100.00;100895.94;4989796;28;20066;-68
2023/09/14 07:58:52;;;;;;;0.00;0.00;;;;;;;19.24;100.00;100907.69;4992386;28;20058;-70
2023/09/14 08:01:18;;;;;;;0.20;0.00;;;;;;;19.30;100.00;100912.22;4988730;28;20030;-70
2023/09/14 08:03:44;;;;;;;0.85;0.22;;;;;;;19.35;100.00;100915.09;4988672;28;20146;-69
2023/09/14 08:06:10;;;;;;;0.30;0.17;;;;;;;19.45;100.00;100915.56;4986874;28;20081;-70
2023/09/14 08:08:35;;;;;;;0.35;0.10;;;;;;;19.44;100.00;100913.13;4993671;28;22543;-70
2023/09/14 08:11:01;;;;;;;0.15;0.05;;;;;;;19.36;100.00;100919.38;4989044;28;20117;-70
2023/09/14 08:13:26;;;;;;;0.40;0.03;;;;;;;19.45;100.00;100915.56;4989684;28;20113;-70
2023/09/14 08:15:52;;;;;;;0.75;0.20;;;;;;;19.34;100.00;100918.75;4988090;28;20113;-70
2023/09/14 08:18:19;;;;;;;0.70;0.00;;;;;;;19.35;100.00;100915.09;4990260;28;20053;-70
2023/09/14 08:20:45;;;;;;;0.05;0.00;;;;;;;19.34;100.00;100920.59;4992083;28;20026;-70
2023/09/14 08:23:12;;;;;;;0.00;0.00;;;;;;;19.35;100.00;100925.69;4986316;28;20061;-70
2023/09/14 08:25:43;;;;;;;0.03;0.00;;;;;;;19.36;100.00;100923.84;4990414;28;20061;-70
2023/09/14 08:28:10;;;;;;;0.28;0.10;;;;;;;19.43;100.00;100922.88;4991310;28;20034;-70
2023/09/14 08:30:37;;;;;;;0.17;0.10;;;;;;;19.40;100.00;100928.53;4988366;28;20045;-70
2023/09/14 08:33:03;;;;;;;0.20;0.03;;;;;;;19.32;100.00;100928.69;4992697;28;20034;-70
2023/09/14 08:35:31;;;;;;;0.52;0.20;;;;;;;19.32;100.00;100933.16;4989022;28;20037;-70
2023/09/14 08:37:57;;;;;;;0.00;0.00;;;;;;;19.31;100.00;100934.97;4991182;28;20387;-70
2023/09/14 08:40:24;;;;;;;0.40;0.10;;;;;;;19.27;100.00;100925.81;4991293;28;20038;-70
2023/09/14 08:42:54;;;;;;;0.30;0.10;;;;;;;19.27;100.00;100928.44;4990681;28;20125;-71
2023/09/14 08:45:25;;;;;;;0.05;0.00;;;;;;;19.23;100.00;100924.53;4986376;28;20030;-72
2023/09/14 08:47:52;;;;;;;0.20;0.10;;;;;;;19.17;100.00;100922.66;4989994;28;20500;-72
2023/09/14 08:50:19;;;;;;;0.32;0.10;;;;;;;19.10;100.00;100930.53;4987509;28;20133;-72
2023/09/14 08:52:45;;;;;;;0.05;0.00;;;;;;;19.09;100.00;100920.97;4992151;28;20526;-72
2023/09/14 08:55:11;;;;;;;0.20;0.10;;;;;;;19.09;100.00;100923.59;4996902;28;20105;-72
2023/09/14 08:57:39;;;;;;;1.02;0.10;;;;;;;19.09;100.00;100923.59;4988775;28;20026;-71
2023/09/14 09:00:17;;;;;;;0.13;0.03;;;;;;;19.13;100.00;100914.28;4992425;28;20034;-72
2023/09/14 09:02:45;;;;;;;0.63;0.10;;;;;;;19.14;100.00;100918.56;4984897;28;20487;-72
2023/09/14 09:05:12;;;;;;;0.17;0.10;;;;;;;19.18;100.00;100916.38;4987940;28;20118;-72
2023/09/14 09:07:42;;;;;;;0.55;0.40;;;;;;;19.17;100.00;100922.66;4986773;28;20096;-73
2023/09/14 09:10:15;;;;;;;0.65;0.30;;;;;;;19.19;100.00;100921.47;4986516;28;20061;-72
2023/09/14 09:12:40;;;;;;;0.43;0.10;;;;;;;19.22;100.00;100920.28;4988424;28;20030;-72
2023/09/14 09:15:07;;;;;;;0.40;0.10;;;;;;;19.22;100.00;100925.56;4991218;28;20392;-73
2023/09/14 09:17:38;;;;;;;0.15;0.10;;;;;;;19.33;100.00;100922.41;4988931;28;20528;-72
2023/09/14 09:20:16;;;;;;;0.30;0.15;;;;;;;19.37;100.00;100928.94;4989437;28;20039;-72
2023/09/14 09:22:45;;;;;;;0.50;0.20;;;;;;;19.21;100.00;100929.19;4990587;28;20105;-73
2023/09/14 09:25:12;;;;;;;0.20;0.10;;;;;;;19.19;100.00;100926.75;4989964;28;20494;-73
2023/09/14 09:27:40;;;;;;;0.20;0.10;;;;;;;19.23;100.00;100932.47;4987161;28;20384;-73
2023/09/14 09:30:08;;;;;;;0.10;0.08;;;;;;;19.22;100.00;100923.72;4988310;28;20360;-73
2023/09/14 09:32:36;;;;;;;0.70;0.20;;;;;;;19.22;100.00;100928.19;4991443;28;20041;-73
2023/09/14 09:35:17;;;;;;;0.00;0.00;;;;;;;19.16;100.00;100929.75;4991220;28;20145;-73
2023/09/14 09:37:43;;;;;;;0.22;0.10;;;;;;;19.16;100.00;100939.50;4990866;28;20419;-72
2023/09/14 09:40:17;;;;;;;0.63;0.30;;;;;;;19.17;100.00;100933.22;4986604;28;20535;-73
2023/09/14 09:42:43;;;;;;;0.38;0.13;;;;;;;19.19;100.00;100936.50;4988291;28;20030;-73
2023/09/14 09:45:11;;;;;;;0.17;0.10;;;;;;;19.19;100.00;100931.22;4989662;28;20034;-73
2023/09/14 09:47:37;;;;;;;0.63;0.10;;;;;;;19.27;100.00;100939.00;4990665;28;20042;-73
2023/09/14 09:50:08;;;;;;;0.20;0.10;;;;;;;19.29;100.00;100931.72;4989767;28;20038;-73
2023/09/14 09:52:34;;;;;;;1.17;0.10;;;;;;;19.31;100.00;100932.34;4989275;28;20084;-73
2023/09/14 09:55:00;;;;;;;0.47;0.10;;;;;;;19.34;100.00;100924.03;4990797;28;20048;-73
2023/09/14 09:57:32;;;;;;;0.15;0.03;;;;;;;19.42;100.00;100915.94;4986551;28;20049;-73
2023/09/14 09:59:58;;;;;;;0.52;0.20;;;;;;;19.48;100.00;100917.00;4977952;28;20033;-73
2023/09/14 10:02:31;;;;;;;0.30;0.20;;;;;;;19.54;100.00;100919.75;4985003;28;20042;-73
2023/09/14 10:04:58;;;;;;;0.20;0.10;;;;;;;19.61;100.00;100918.97;4989521;28;20387;-73
2023/09/14 10:07:23;;;;;;;1.52;0.17;;;;;;;19.61;100.00;100914.50;4986895;28;20440;-73
2023/09/14 10:09:55;;;;;;;0.40;0.13;;;;;;;19.67;100.00;100923.50;4984783;28;20038;-73
2023/09/14 10:12:24;;;;;;;0.10;0.00;;;;;;;19.69;100.00;100919.66;4987090;28;20023;-73
2023/09/14 10:14:54;;;;;;;0.00;0.00;;;;;;;19.73;100.00;100915.63;4990218;28;20488;-73
2023/09/14 10:17:25;;;;;;;0.75;0.10;;;;;;;19.71;100.00;100915.00;4986267;28;20085;-73
2023/09/14 10:19:51;;;;;;;0.20;0.10;;;;;;;19.66;100.00;100906.00;4987512;28;20023;-73
2023/09/14 10:22:19;;;;;;;0.17;0.10;;;;;;;19.62;100.00;100904.75;4987722;28;20042;-73
2023/09/14 10:24:46;;;;;;;0.68;0.10;;;;;;;19.67;100.00;100905.81;4989339;28;20042;-73
2023/09/14 10:27:13;;;;;;;0.00;0.00;;;;;;;19.82;100.00;100911.81;4983594;28;20488;-73
2023/09/14 10:29:42;;;;;;;0.38;0.20;;;;;;;19.88;100.00;100907.56;4986475;28;20567;-73
2023/09/14 10:32:11;;;;;;;0.75;0.10;;;;;;;19.87;100.00;100897.97;4987581;28;20035;-73
2023/09/14 10:34:39;;;;;;;0.25;0.13;;;;;;;19.87;100.00;100903.28;4988076;28;20586;-73
2023/09/14 10:37:04;;;;;;;0.43;0.22;;;;;;;19.87;100.00;100892.69;4988309;28;20527;-73
2023/09/14 10:39:30;;;;;;;0.38;0.10;;;;;;;19.77;100.00;100895.72;4987608;28;20027;-73
2023/09/14 10:41:56;;;;;;;0.52;0.20;;;;;;;19.78;100.00;100888.59;4987286;28;20151;-73
2023/09/14 10:44:22;;;;;;;0.50;0.10;;;;;;;19.82;100.00;100887.19;4987416;28;20396;-73
2023/09/14 10:46:52;;;;;;;0.20;0.20;;;;;;;19.90;100.00;100884.38;4989772;28;20042;-73
2023/09/14 10:49:24;;;;;;;0.35;0.20;;;;;;;19.92;100.00;100882.34;4988673;28;20078;-73
2023/09/14 10:51:51;;;;;;;0.28;0.08;;;;;;;19.98;100.00;100878.94;4989157;28;20555;-73
2023/09/14 10:54:30;;;;;;;0.25;0.13;;;;;;;20.03;100.00;100879.16;4987690;28;20085;-73
2023/09/14 10:57:00;;;;;;;0.57;0.10;;;;;;;19.97;100.00;100882.59;4987594;28;20432;-73
2023/09/14 11:00:04;;;;;;;0.30;0.00;;;;;;;20.01;100.00;100867.97;4988062;28;20030;-73
2023/09/14 11:02:39;;;;;;;0.32;0.10;;;;;;;20.02;100.00;100869.59;5004002;28;20227;-72
2023/09/14 11:05:13;;;;;;;0.33;0.10;;;;;;;20.04;100.00;100862.28;5006329;28;20045;-72
2023/09/14 11:07:40;;;;;;;0.55;0.28;;;;;;;20.17;100.00;100861.53;5004732;28;20061;-72
2023/09/14 11:10:07;;;;;;;0.20;0.10;;;;;;;20.19;100.00;100864.78;5005235;28;20120;-72
2023/09/14 11:12:33;;;;;;;0.03;0.00;;;;;;;20.20;100.00;100859.31;5005445;28;20026;-72
2023/09/14 11:15:15;;;;;;;0.47;0.15;;;;;;;20.18;100.00;100858.69;5004667;28;20633;-72
2023/09/14 11:17:42;;;;;;;0.88;0.13;;;;;;;20.07;100.00;100861.06;5006715;28;20092;-72